sensor_id;sensor_type;location;lat;lon;timestamp;P1;durP1;ratioP1;P2;durP2;ratioP2
11596;SDS011;5854;48.072;16.286;2023-09-19T00:00:19;0.00;;;0.00;;
11596;SDS011;5854;48.072;16.286;2023-09-19T00:02:46;0.10;;;0.10;;
11596;SDS011;5854;48.072;16.286;2023-09-19T00:05:19;0.20;;;0.10;;
11596;SDS011;5854;48.072;16.286;2023-09-19T00:07:49;0.50;;;0.10;;
11596;SDS011;5854;48.072;16.286;2023-09-19T00:10:19;0.28;;;0.10;;
11596;SDS011;5854;48.072;16.286;2023-09-19T00:12:51;0.65;;;0.30;;
11596;SDS011;5854;48.072;16.286;2023-09-19T00:15:21;0.40;;;0.13;;
11596;SDS011;5854;48.072;16.286;2023-09-19T00:17:48;1.65;;;0.20;;
11596;SDS011;5854;48.072;16.286;2023-09-19T00:20:17;0.85;;;0.20;;
11596;SDS011;5854;48.072;16.286;2023-09-19T00:22:46;0.70;;;0.20;;
11596;SDS011;5854;48.072;16.286;2023-09-19T00:25:14;0.10;;;0.10;;
11596;SDS011;5854;48.072;16.286;2023-09-19T00:27:41;0.28;;;0.15;;
11596;SDS011;5854;48.072;16.286;2023-09-19T00:30:12;0.00;;;0.00;;
11596;SDS011;5854;48.072;16.286;2023-09-19T00:32:44;1.00;;;0.20;;
11596;SDS011;5854;48.072;16.286;2023-09-19T00:35:13;0.43;;;0.20;;
11596;SDS011;5854;48.072;16.286;2023-09-19T00:37:41;0.10;;;0.10;;
11596;SDS011;5854;48.072;16.286;2023-09-19T00:40:09;0.52;;;0.20;;
11596;SDS011;5854;48.072;16.286;2023-09-19T00:42:38;0.20;;;0.20;;
11596;SDS011;5854;48.072;16.286;2023-09-19T00:45:06;0.40;;;0.10;;
11596;SDS011;5854;48.072;16.286;2023-09-19T00:47:37;0.13;;;0.10;;
11596;SDS011;5854;48.072;16.286;2023-09-19T00:50:06;1.85;;;0.17;;
11596;SDS011;5854;48.072;16.286;2023-09-19T00:52:36;0.32;;;0.10;;
11596;SDS011;5854;48.072;16.286;2023-09-19T00:55:05;0.20;;;0.10;;
11596;SDS011;5854;48.072;16.286;2023-09-19T00:57:33;0.43;;;0.10;;
11596;SDS011;5854;48.072;16.286;2023-09-19T01:00:02;0.20;;;0.10;;
11596;SDS011;5854;48.072;16.286;2023-09-19T01:02:32;0.20;;;0.20;;
11596;SDS011;5854;48.072;16.286;2023-09-19T01:05:01;0.10;;;0.10;;
11596;SDS011;5854;48.072;16.286;2023-09-19T01:07:31;2.13;;;0.10;;
11596;SDS011;5854;48.072;16.286;2023-09-19T01:09:59;0.95;;;0.20;;
11596;SDS011;5854;48.072;16.286;2023-09-19T01:12:30;2.38;;;0.20;;
11596;SDS011;5854;48.072;16.286;2023-09-19T01:15:11;0.25;;;0.22;;
11596;SDS011;5854;48.072;16.286;2023-09-19T01:17:49;3.13;;;0.30;;
11596;SDS011;5854;48.072;16.286;2023-09-19T01:20:29;0.10;;;0.10;;
11596;SDS011;5854;48.072;16.286;2023-09-19T01:23:10;1.00;;;0.30;;
11596;SDS011;5854;48.072;16.286;2023-09-19T01:26:06;0.50;;;0.30;;
11596;SDS011;5854;48.072;16.286;2023-09-19T01:28:51;0.35;;;0.20;;
11596;SDS011;5854;48.072;16.286;2023-09-19T01:31:24;0.85;;;0.30;;
11596;SDS011;5854;48.072;16.286;2023-09-19T01:33:56;0.43;;;0.13;;
11596;SDS011;5854;48.072;16.286;2023-09-19T01:36:26;0.93;;;0.30;;
11596;SDS011;5854;48.072;16.286;2023-09-19T01:38:55;1.70;;;0.32;;
11596;SDS011;5854;48.072;16.286;2023-09-19T01:41:30;2.45;;;0.13;;
11596;SDS011;5854;48.072;16.286;2023-09-19T01:44:09;0.95;;;0.20;;
11596;SDS011;5854;48.072;16.286;2023-09-19T01:46:45;0.30;;;0.20;;
11596;SDS011;5854;48.072;16.286;2023-09-19T01:53:21;1.35;;;0.32;;
11596;SDS011;5854;48.072;16.286;2023-09-19T01:55:53;1.38;;;0.20;;
11596;SDS011;5854;48.072;16.286;2023-09-19T01:58:21;0.47;;;0.25;;
11596;SDS011;5854;48.072;16.286;2023-09-19T02:00:56;0.77;;;0.20;;
11596;SDS011;5854;48.072;16.286;2023-09-19T02:03:28;0.30;;;0.30;;
11596;SDS011;5854;48.072;16.286;2023-09-19T02:05:56;1.17;;;0.30;;
11596;SDS011;5854;48.072;16.286;2023-09-19T02:08:23;0.10;;;0.10;;
11596;SDS011;5854;48.072;16.286;2023-09-19T02:10:50;0.52;;;0.30;;
11596;SDS011;5854;48.072;16.286;2023-09-19T02:13:18;0.45;;;0.32;;
11596;SDS011;5854;48.072;16.286;2023-09-19T02:15:47;0.25;;;0.20;;
11596;SDS011;5854;48.072;16.286;2023-09-19T02:18:14;1.70;;;0.40;;
11596;SDS011;5854;48.072;16.286;2023-09-19T02:20:43;0.10;;;0.10;;
11596;SDS011;5854;48.072;16.286;2023-09-19T02:23:11;2.13;;;0.30;;
11596;SDS011;5854;48.072;16.286;2023-09-19T02:25:39;0.32;;;0.20;;
11596;SDS011;5854;48.072;16.286;2023-09-19T02:28:06;0.15;;;0.15;;
11596;SDS011;5854;48.072;16.286;2023-09-19T02:30:34;0.20;;;0.10;;
11596;SDS011;5854;48.072;16.286;2023-09-19T02:33:02;1.13;;;0.20;;
11596;SDS011;5854;48.072;16.286;2023-09-19T02:35:30;0.13;;;0.10;;
11596;SDS011;5854;48.072;16.286;2023-09-19T02:38:01;0.38;;;0.20;;
11596;SDS011;5854;48.072;16.286;2023-09-19T02:40:31;0.10;;;0.10;;
11596;SDS011;5854;48.072;16.286;2023-09-19T02:43:01;0.22;;;0.20;;
11596;SDS011;5854;48.072;16.286;2023-09-19T02:45:28;0.52;;;0.10;;
11596;SDS011;5854;48.072;16.286;2023-09-19T02:47:56;1.05;;;0.20;;
11596;SDS011;5854;48.072;16.286;2023-09-19T02:50:23;0.20;;;0.20;;
11596;SDS011;5854;48.072;16.286;2023-09-19T02:52:50;0.63;;;0.30;;
11596;SDS011;5854;48.072;16.286;2023-09-19T02:55:20;0.47;;;0.30;;
11596;SDS011;5854;48.072;16.286;2023-09-19T02:57:47;2.60;;;0.30;;
11596;SDS011;5854;48.072;16.286;2023-09-19T03:00:15;0.10;;;0.10;;
11596;SDS011;5854;48.072;16.286;2023-09-19T03:02:46;1.13;;;0.20;;
11596;SDS011;5854;48.072;16.286;2023-09-19T03:05:13;0.47;;;0.30;;
11596;SDS011;5854;48.072;16.286;2023-09-19T03:07:41;0.10;;;0.10;;
11596;SDS011;5854;48.072;16.286;2023-09-19T03:10:11;0.63;;;0.28;;
11596;SDS011;5854;48.072;16.286;2023-09-19T03:12:41;0.30;;;0.30;;
11596;SDS011;5854;48.072;16.286;2023-09-19T03:15:08;0.90;;;0.40;;
11596;SDS011;5854;48.072;16.286;2023-09-19T03:17:36;0.20;;;0.20;;
11596;SDS011;5854;48.072;16.286;2023-09-19T03:20:04;0.28;;;0.20;;
11596;SDS011;5854;48.072;16.286;2023-09-19T03:22:37;1.20;;;0.30;;
11596;SDS011;5854;48.072;16.286;2023-09-19T03:25:05;0.25;;;0.20;;
11596;SDS011;5854;48.072;16.286;2023-09-19T03:27:35;2.17;;;0.30;;
11596;SDS011;5854;48.072;16.286;2023-09-19T03:30:04;0.20;;;0.20;;
11596;SDS011;5854;48.072;16.286;2023-09-19T03:32:34;0.15;;;0.15;;
11596;SDS011;5854;48.072;16.286;2023-09-19T03:35:01;0.30;;;0.20;;
11596;SDS011;5854;48.072;16.286;2023-09-19T03:37:30;0.45;;;0.15;;
11596;SDS011;5854;48.072;16.286;2023-09-19T03:39:58;0.25;;;0.20;;
11596;SDS011;5854;48.072;16.286;2023-09-19T03:42:24;0.25;;;0.20;;
11596;SDS011;5854;48.072;16.286;2023-09-19T03:44:51;0.40;;;0.30;;
11596;SDS011;5854;48.072;16.286;2023-09-19T03:47:21;0.60;;;0.50;;
11596;SDS011;5854;48.072;16.286;2023-09-19T03:49:48;0.30;;;0.30;;
11596;SDS011;5854;48.072;16.286;2023-09-19T03:52:15;0.55;;;0.28;;
11596;SDS011;5854;48.072;16.286;2023-09-19T03:54:42;0.63;;;0.20;;
11596;SDS011;5854;48.072;16.286;2023-09-19T03:57:09;0.20;;;0.20;;
11596;SDS011;5854;48.072;16.286;2023-09-19T03:59:37;1.90;;;0.32;;
11596;SDS011;5854;48.072;16.286;2023-09-19T04:02:07;0.30;;;0.30;;
11596;SDS011;5854;48.072;16.286;2023-09-19T04:04:39;0.47;;;0.30;;
11596;SDS011;5854;48.072;16.286;2023-09-19T04:07:06;0.28;;;0.28;;
11596;SDS011;5854;48.072;16.286;2023-09-19T04:09:33;0.30;;;0.30;;
11596;SDS011;5854;48.072;16.286;2023-09-19T04:12:00;0.88;;;0.28;;
11596;SDS011;5854;48.072;16.286;2023-09-19T04:14:28;2.58;;;0.43;;
11596;SDS011;5854;48.072;16.286;2023-09-19T04:16:55;0.20;;;0.20;;
11596;SDS011;5854;48.072;16.286;2023-09-19T04:19:22;1.60;;;0.40;;
11596;SDS011;5854;48.072;16.286;2023-09-19T04:21:51;1.00;;;0.50;;
11596;SDS011;5854;48.072;16.286;2023-09-19T04:24:18;1.40;;;0.40;;
11596;SDS011;5854;48.072;16.286;2023-09-19T04:26:45;0.40;;;0.40;;
11596;SDS011;5854;48.072;16.286;2023-09-19T04:29:13;0.70;;;0.52;;
11596;SDS011;5854;48.072;16.286;2023-09-19T04:31:40;0.50;;;0.40;;
11596;SDS011;5854;48.072;16.286;2023-09-19T04:34:10;0.30;;;0.30;;
11596;SDS011;5854;48.072;16.286;2023-09-19T04:36:42;0.63;;;0.43;;
11596;SDS011;5854;48.072;16.286;2023-09-19T04:39:11;0.30;;;0.30;;
11596;SDS011;5854;48.072;16.286;2023-09-19T04:41:39;2.67;;;0.50;;
11596;SDS011;5854;48.072;16.286;2023-09-19T04:44:11;0.40;;;0.32;;
11596;SDS011;5854;48.072;16.286;2023-09-19T04:46:39;0.73;;;0.50;;
11596;SDS011;5854;48.072;16.286;2023-09-19T04:49:06;2.25;;;0.40;;
11596;SDS011;5854;48.072;16.286;2023-09-19T04:51:33;0.95;;;0.70;;
11596;SDS011;5854;48.072;16.286;2023-09-19T04:54:01;0.63;;;0.55;;
11596;SDS011;5854;48.072;16.286;2023-09-19T04:56:30;1.00;;;0.55;;
11596;SDS011;5854;48.072;16.286;2023-09-19T04:58:58;0.88;;;0.50;;
11596;SDS011;5854;48.072;16.286;2023-09-19T05:01:26;1.15;;;0.50;;
11596;SDS011;5854;48.072;16.286;2023-09-19T05:03:54;0.63;;;0.43;;
11596;SDS011;5854;48.072;16.286;2023-09-19T05:06:22;1.08;;;0.68;;
11596;SDS011;5854;48.072;16.286;2023-09-19T05:08:52;1.92;;;0.40;;
11596;SDS011;5854;48.072;16.286;2023-09-19T05:11:19;1.15;;;0.70;;
11596;SDS011;5854;48.072;16.286;2023-09-19T05:13:49;1.58;;;0.55;;
11596;SDS011;5854;48.072;16.286;2023-09-19T05:16:17;0.85;;;0.50;;
11596;SDS011;5854;48.072;16.286;2023-09-19T05:18:44;0.50;;;0.50;;
11596;SDS011;5854;48.072;16.286;2023-09-19T05:21:11;5.00;;;0.70;;
11596;SDS011;5854;48.072;16.286;2023-09-19T05:23:38;0.55;;;0.50;;
11596;SDS011;5854;48.072;16.286;2023-09-19T05:26:12;0.98;;;0.50;;
11596;SDS011;5854;48.072;16.286;2023-09-19T05:28:41;0.65;;;0.45;;
11596;SDS011;5854;48.072;16.286;2023-09-19T05:31:10;1.75;;;0.70;;
11596;SDS011;5854;48.072;16.286;2023-09-19T05:33:37;0.55;;;0.50;;
11596;SDS011;5854;48.072;16.286;2023-09-19T06:27:45;0.75;;;0.60;;
11596;SDS011;5854;48.072;16.286;2023-09-19T06:30:12;1.17;;;0.68;;
11596;SDS011;5854;48.072;16.286;2023-09-19T06:32:40;0.80;;;0.80;;
11596;SDS011;5854;48.072;16.286;2023-09-19T06:35:09;3.42;;;0.60;;
11596;SDS011;5854;48.072;16.286;2023-09-19T06:37:37;1.05;;;0.70;;
11596;SDS011;5854;48.072;16.286;2023-09-19T06:40:06;1.92;;;0.80;;
11596;SDS011;5854;48.072;16.286;2023-09-19T06:42:38;1.70;;;0.75;;
11596;SDS011;5854;48.072;16.286;2023-09-19T06:45:08;1.15;;;0.60;;
11596;SDS011;5854;48.072;16.286;2023-09-19T06:47:42;1.90;;;0.68;;
11596;SDS011;5854;48.072;16.286;2023-09-19T06:50:11;2.08;;;0.40;;
11596;SDS011;5854;48.072;16.286;2023-09-19T06:52:39;0.65;;;0.50;;
11596;SDS011;5854;48.072;16.286;2023-09-19T06:55:07;1.45;;;0.60;;
11596;SDS011;5854;48.072;16.286;2023-09-19T06:57:37;1.77;;;0.98;;
11596;SDS011;5854;48.072;16.286;2023-09-19T07:00:06;1.75;;;0.68;;
11596;SDS011;5854;48.072;16.286;2023-09-19T07:02:43;1.15;;;0.60;;
11596;SDS011;5854;48.072;16.286;2023-09-19T07:05:10;0.60;;;0.47;;
11596;SDS011;5854;48.072;16.286;2023-09-19T07:07:38;0.40;;;0.40;;
11596;SDS011;5854;48.072;16.286;2023-09-19T07:10:05;0.70;;;0.50;;
11596;SDS011;5854;48.072;16.286;2023-09-19T07:12:36;1.00;;;0.60;;
11596;SDS011;5854;48.072;16.286;2023-09-19T07:25:26;0.65;;;0.47;;
11596;SDS011;5854;48.072;16.286;2023-09-19T07:38:14;0.68;;;0.50;;
11596;SDS011;5854;48.072;16.286;2023-09-19T07:43:21;1.27;;;0.50;;
11596;SDS011;5854;48.072;16.286;2023-09-19T07:45:48;2.25;;;0.50;;
11596;SDS011;5854;48.072;16.286;2023-09-19T07:48:15;1.92;;;0.40;;
11596;SDS011;5854;48.072;16.286;2023-09-19T07:50:44;0.50;;;0.50;;
11596;SDS011;5854;48.072;16.286;2023-09-19T07:53:11;3.03;;;1.10;;
11596;SDS011;5854;48.072;16.286;2023-09-19T07:55:39;1.20;;;0.70;;
11596;SDS011;5854;48.072;16.286;2023-09-19T07:58:06;0.68;;;0.57;;
11596;SDS011;5854;48.072;16.286;2023-09-19T08:00:35;0.50;;;0.35;;
11596;SDS011;5854;48.072;16.286;2023-09-19T08:03:03;2.15;;;0.40;;
11596;SDS011;5854;48.072;16.286;2023-09-19T08:05:31;0.45;;;0.45;;
11596;SDS011;5854;48.072;16.286;2023-09-19T08:07:58;1.77;;;0.75;;
11596;SDS011;5854;48.072;16.286;2023-09-19T08:10:26;3.53;;;0.75;;
11596;SDS011;5854;48.072;16.286;2023-09-19T08:13:00;0.63;;;0.52;;
11596;SDS011;5854;48.072;16.286;2023-09-19T08:15:27;0.52;;;0.30;;
11596;SDS011;5854;48.072;16.286;2023-09-19T08:17:56;0.85;;;0.43;;
11596;SDS011;5854;48.072;16.286;2023-09-19T08:20:23;1.88;;;0.57;;
11596;SDS011;5854;48.072;16.286;2023-09-19T08:22:50;1.10;;;0.43;;
11596;SDS011;5854;48.072;16.286;2023-09-19T08:25:22;1.10;;;0.60;;
11596;SDS011;5854;48.072;16.286;2023-09-19T08:27:50;0.40;;;0.40;;
11596;SDS011;5854;48.072;16.286;2023-09-19T08:30:18;0.60;;;0.60;;
11596;SDS011;5854;48.072;16.286;2023-09-19T08:32:49;0.40;;;0.30;;
11596;SDS011;5854;48.072;16.286;2023-09-19T08:35:17;0.50;;;0.50;;
11596;SDS011;5854;48.072;16.286;2023-09-19T08:37:44;0.65;;;0.63;;
11596;SDS011;5854;48.072;16.286;2023-09-19T08:40:12;0.77;;;0.77;;
11596;SDS011;5854;48.072;16.286;2023-09-19T08:42:48;0.40;;;0.40;;
11596;SDS011;5854;48.072;16.286;2023-09-19T08:45:16;0.63;;;0.40;;
11596;SDS011;5854;48.072;16.286;2023-09-19T08:47:45;1.65;;;0.70;;
11596;SDS011;5854;48.072;16.286;2023-09-19T08:50:19;0.68;;;0.60;;
11596;SDS011;5854;48.072;16.286;2023-09-19T08:52:53;1.27;;;0.73;;
11596;SDS011;5854;48.072;16.286;2023-09-19T08:55:23;0.80;;;0.55;;
11596;SDS011;5854;48.072;16.286;2023-09-19T08:57:57;0.65;;;0.60;;
11596;SDS011;5854;48.072;16.286;2023-09-19T09:00:28;0.45;;;0.45;;
11596;SDS011;5854;48.072;16.286;2023-09-19T09:02:55;6.20;;;0.80;;
11596;SDS011;5854;48.072;16.286;2023-09-19T09:05:27;1.15;;;0.68;;
11596;SDS011;5854;48.072;16.286;2023-09-19T09:07:55;4.40;;;0.50;;
11596;SDS011;5854;48.072;16.286;2023-09-19T09:10:22;0.80;;;0.60;;
11596;SDS011;5854;48.072;16.286;2023-09-19T09:12:51;1.45;;;0.50;;
11596;SDS011;5854;48.072;16.286;2023-09-19T09:15:21;0.63;;;0.47;;
11596;SDS011;5854;48.072;16.286;2023-09-19T09:17:49;1.20;;;0.57;;
11596;SDS011;5854;48.072;16.286;2023-09-19T09:20:18;0.90;;;0.60;;
11596;SDS011;5854;48.072;16.286;2023-09-19T09:22:53;2.50;;;0.70;;
11596;SDS011;5854;48.072;16.286;2023-09-19T09:25:27;0.47;;;0.30;;
11596;SDS011;5854;48.072;16.286;2023-09-19T09:28:18;0.30;;;0.30;;
11596;SDS011;5854;48.072;16.286;2023-09-19T09:33:14;0.40;;;0.40;;
11596;SDS011;5854;48.072;16.286;2023-09-19T09:46:11;1.15;;;0.60;;
11596;SDS011;5854;48.072;16.286;2023-09-19T09:49:12;1.15;;;0.47;;
11596;SDS011;5854;48.072;16.286;2023-09-19T09:54:22;1.30;;;0.45;;
11596;SDS011;5854;48.072;16.286;2023-09-19T09:59:23;1.48;;;0.43;;
11596;SDS011;5854;48.072;16.286;2023-09-19T10:02:20;0.30;;;0.30;;
11596;SDS011;5854;48.072;16.286;2023-09-19T10:04:59;1.70;;;0.40;;
11596;SDS011;5854;48.072;16.286;2023-09-19T10:07:42;2.20;;;0.68;;
11596;SDS011;5854;48.072;16.286;2023-09-19T10:10:30;4.88;;;0.55;;
11596;SDS011;5854;48.072;16.286;2023-09-19T10:13:06;1.98;;;0.60;;
11596;SDS011;5854;48.072;16.286;2023-09-19T10:15:40;0.65;;;0.40;;
11596;SDS011;5854;48.072;16.286;2023-09-19T10:48:46;1.77;;;0.60;;
11596;SDS011;5854;48.072;16.286;2023-09-19T10:51:16;0.40;;;0.40;;
11596;SDS011;5854;48.072;16.286;2023-09-19T10:53:49;0.38;;;0.38;;
11596;SDS011;5854;48.072;16.286;2023-09-19T10:58:57;0.88;;;0.43;;
11596;SDS011;5854;48.072;16.286;2023-09-19T11:01:44;0.40;;;0.35;;
11596;SDS011;5854;48.072;16.286;2023-09-19T11:04:24;1.17;;;0.45;;
11596;SDS011;5854;48.072;16.286;2023-09-19T11:09:44;0.68;;;0.30;;
11596;SDS011;5854;48.072;16.286;2023-09-19T11:12:13;0.40;;;0.40;;
11596;SDS011;5854;48.072;16.286;2023-09-19T11:21:40;1.55;;;0.55;;
11596;SDS011;5854;48.072;16.286;2023-09-19T11:24:32;0.57;;;0.57;;
11596;SDS011;5854;48.072;16.286;2023-09-19T11:27:10;0.20;;;0.20;;
11596;SDS011;5854;48.072;16.286;2023-09-19T11:29:39;2.38;;;0.60;;
11596;SDS011;5854;48.072;16.286;2023-09-19T11:32:07;0.68;;;0.47;;
11596;SDS011;5854;48.072;16.286;2023-09-19T11:34:42;0.88;;;0.60;;
11596;SDS011;5854;48.072;16.286;2023-09-19T11:40:40;0.77;;;0.60;;
11596;SDS011;5854;48.072;16.286;2023-09-19T11:43:32;0.40;;;0.32;;
11596;SDS011;5854;48.072;16.286;2023-09-19T11:46:08;1.90;;;0.40;;
11596;SDS011;5854;48.072;16.286;2023-09-19T11:48:37;1.23;;;0.40;;
11596;SDS011;5854;48.072;16.286;2023-09-19T11:51:13;0.55;;;0.40;;
11596;SDS011;5854;48.072;16.286;2023-09-19T11:53:54;0.47;;;0.30;;
11596;SDS011;5854;48.072;16.286;2023-09-19T11:56:22;2.20;;;0.60;;
11596;SDS011;5854;48.072;16.286;2023-09-19T11:58:52;2.10;;;0.50;;
11596;SDS011;5854;48.072;16.286;2023-09-19T12:01:22;0.65;;;0.40;;
11596;SDS011;5854;48.072;16.286;2023-09-19T12:03:54;0.43;;;0.43;;
11596;SDS011;5854;48.072;16.286;2023-09-19T12:06:23;1.40;;;0.30;;
11596;SDS011;5854;48.072;16.286;2023-09-19T12:08:53;0.40;;;0.38;;
11596;SDS011;5854;48.072;16.286;2023-09-19T12:11:22;0.98;;;0.50;;
11596;SDS011;5854;48.072;16.286;2023-09-19T12:13:49;0.50;;;0.40;;
11596;SDS011;5854;48.072;16.286;2023-09-19T12:16:18;0.75;;;0.40;;
11596;SDS011;5854;48.072;16.286;2023-09-19T12:18:48;0.60;;;0.40;;
11596;SDS011;5854;48.072;16.286;2023-09-19T12:24:06;2.72;;;0.47;;
11596;SDS011;5854;48.072;16.286;2023-09-19T12:26:39;0.43;;;0.43;;
11596;SDS011;5854;48.072;16.286;2023-09-19T12:29:18;0.40;;;0.35;;
11596;SDS011;5854;48.072;16.286;2023-09-19T12:31:52;4.13;;;0.43;;
11596;SDS011;5854;48.072;16.286;2023-09-19T12:34:23;0.40;;;0.40;;
11596;SDS011;5854;48.072;16.286;2023-09-19T12:37:05;1.00;;;0.50;;
11596;SDS011;5854;48.072;16.286;2023-09-19T12:42:14;0.50;;;0.50;;
11596;SDS011;5854;48.072;16.286;2023-09-19T12:44:43;1.30;;;0.68;;
11596;SDS011;5854;48.072;16.286;2023-09-19T12:47:13;0.60;;;0.40;;
11596;SDS011;5854;48.072;16.286;2023-09-19T12:52:40;0.38;;;0.30;;
11596;SDS011;5854;48.072;16.286;2023-09-19T12:55:20;0.70;;;0.60;;
11596;SDS011;5854;48.072;16.286;2023-09-19T12:57:56;0.68;;;0.30;;
11596;SDS011;5854;48.072;16.286;2023-09-19T13:00:41;0.88;;;0.38;;
11596;SDS011;5854;48.072;16.286;2023-09-19T13:03:13;0.55;;;0.40;;
11596;SDS011;5854;48.072;16.286;2023-09-19T13:05:49;0.10;;;0.10;;
11596;SDS011;5854;48.072;16.286;2023-09-19T13:08:19;1.55;;;0.40;;
11596;SDS011;5854;48.072;16.286;2023-09-19T13:13:46;0.73;;;0.40;;
11596;SDS011;5854;48.072;16.286;2023-09-19T13:16:19;0.30;;;0.30;;
11596;SDS011;5854;48.072;16.286;2023-09-19T13:18:48;0.95;;;0.38;;
11596;SDS011;5854;48.072;16.286;2023-09-19T13:21:26;0.47;;;0.40;;
11596;SDS011;5854;48.072;16.286;2023-09-19T13:24:17;2.00;;;0.60;;
11596;SDS011;5854;48.072;16.286;2023-09-19T13:26:47;0.32;;;0.20;;
11596;SDS011;5854;48.072;16.286;2023-09-19T13:29:15;0.25;;;0.20;;
11596;SDS011;5854;48.072;16.286;2023-09-19T13:31:45;0.40;;;0.30;;
11596;SDS011;5854;48.072;16.286;2023-09-19T13:34:13;0.63;;;0.40;;
11596;SDS011;5854;48.072;16.286;2023-09-19T13:36:41;0.68;;;0.47;;
11596;SDS011;5854;48.072;16.286;2023-09-19T13:39:08;0.60;;;0.40;;
11596;SDS011;5854;48.072;16.286;2023-09-19T13:41:38;0.88;;;0.50;;
11596;SDS011;5854;48.072;16.286;2023-09-19T13:44:06;0.30;;;0.30;;
11596;SDS011;5854;48.072;16.286;2023-09-19T13:46:35;0.65;;;0.30;;
11596;SDS011;5854;48.072;16.286;2023-09-19T13:49:03;0.30;;;0.30;;
11596;SDS011;5854;48.072;16.286;2023-09-19T13:51:30;0.57;;;0.30;;
11596;SDS011;5854;48.072;16.286;2023-09-19T13:53:58;1.15;;;0.30;;
11596;SDS011;5854;48.072;16.286;2023-09-19T13:56:25;0.50;;;0.38;;
11596;SDS011;5854;48.072;16.286;2023-09-19T13:58:56;0.20;;;0.20;;
11596;SDS011;5854;48.072;16.286;2023-09-19T14:01:24;0.20;;;0.20;;
11596;SDS011;5854;48.072;16.286;2023-09-19T14:03:52;0.30;;;0.30;;
11596;SDS011;5854;48.072;16.286;2023-09-19T14:06:22;0.40;;;0.40;;
11596;SDS011;5854;48.072;16.286;2023-09-19T14:08:49;0.50;;;0.30;;
11596;SDS011;5854;48.072;16.286;2023-09-19T14:11:16;0.30;;;0.30;;
11596;SDS011;5854;48.072;16.286;2023-09-19T14:13:43;0.50;;;0.40;;
11596;SDS011;5854;48.072;16.286;2023-09-19T14:16:12;0.32;;;0.32;;
11596;SDS011;5854;48.072;16.286;2023-09-19T14:18:40;0.52;;;0.40;;
11596;SDS011;5854;48.072;16.286;2023-09-19T14:21:07;0.47;;;0.40;;
11596;SDS011;5854;48.072;16.286;2023-09-19T14:23:36;1.85;;;0.55;;
11596;SDS011;5854;48.072;16.286;2023-09-19T14:26:03;0.95;;;0.28;;
11596;SDS011;5854;48.072;16.286;2023-09-19T14:28:33;0.40;;;0.32;;
11596;SDS011;5854;48.072;16.286;2023-09-19T14:31:04;1.67;;;0.38;;
11596;SDS011;5854;48.072;16.286;2023-09-19T14:33:38;0.75;;;0.40;;
11596;SDS011;5854;48.072;16.286;2023-09-19T14:36:07;0.55;;;0.43;;
11596;SDS011;5854;48.072;16.286;2023-09-19T14:38:37;0.43;;;0.30;;
11596;SDS011;5854;48.072;16.286;2023-09-19T14:41:05;0.45;;;0.40;;
11596;SDS011;5854;48.072;16.286;2023-09-19T14:43:32;0.73;;;0.35;;
11596;SDS011;5854;48.072;16.286;2023-09-19T14:46:02;1.38;;;0.50;;
11596;SDS011;5854;48.072;16.286;2023-09-19T14:48:29;0.95;;;0.35;;
11596;SDS011;5854;48.072;16.286;2023-09-19T14:51:01;0.50;;;0.35;;
11596;SDS011;5854;48.072;16.286;2023-09-19T14:53:30;0.20;;;0.20;;
11596;SDS011;5854;48.072;16.286;2023-09-19T14:55:59;0.50;;;0.40;;
11596;SDS011;5854;48.072;16.286;2023-09-19T14:58:28;1.10;;;0.33;;
11596;SDS011;5854;48.072;16.286;2023-09-19T15:01:01;0.90;;;0.40;;
11596;SDS011;5854;48.072;16.286;2023-09-19T15:03:30;1.85;;;0.47;;
11596;SDS011;5854;48.072;16.286;2023-09-19T15:06:01;0.43;;;0.20;;
11596;SDS011;5854;48.072;16.286;2023-09-19T15:08:31;0.30;;;0.30;;
11596;SDS011;5854;48.072;16.286;2023-09-19T15:11:00;0.20;;;0.20;;
11596;SDS011;5854;48.072;16.286;2023-09-19T15:13:29;0.73;;;0.40;;
11596;SDS011;5854;48.072;16.286;2023-09-19T15:15:58;0.20;;;0.20;;
11596;SDS011;5854;48.072;16.286;2023-09-19T15:18:26;0.15;;;0.15;;
11596;SDS011;5854;48.072;16.286;2023-09-19T15:20:53;0.40;;;0.32;;
11596;SDS011;5854;48.072;16.286;2023-09-19T15:23:20;0.30;;;0.30;;
11596;SDS011;5854;48.072;16.286;2023-09-19T15:25:49;0.38;;;0.38;;
11596;SDS011;5854;48.072;16.286;2023-09-19T15:28:17;0.38;;;0.30;;
11596;SDS011;5854;48.072;16.286;2023-09-19T15:30:47;0.38;;;0.20;;
11596;SDS011;5854;48.072;16.286;2023-09-19T15:33:15;0.55;;;0.30;;
11596;SDS011;5854;48.072;16.286;2023-09-19T15:35:42;2.65;;;0.32;;
11596;SDS011;5854;48.072;16.286;2023-09-19T15:38:09;1.45;;;0.32;;
11596;SDS011;5854;48.072;16.286;2023-09-19T15:40:37;0.38;;;0.22;;
11596;SDS011;5854;48.072;16.286;2023-09-19T15:43:14;0.35;;;0.35;;
11596;SDS011;5854;48.072;16.286;2023-09-19T15:45:42;0.20;;;0.20;;
11596;SDS011;5854;48.072;16.286;2023-09-19T15:48:09;0.47;;;0.30;;
11596;SDS011;5854;48.072;16.286;2023-09-19T15:50:36;0.75;;;0.30;;
11596;SDS011;5854;48.072;16.286;2023-09-19T15:53:03;0.22;;;0.20;;
11596;SDS011;5854;48.072;16.286;2023-09-19T15:55:30;0.63;;;0.30;;
11596;SDS011;5854;48.072;16.286;2023-09-19T15:57:58;0.20;;;0.20;;
11596;SDS011;5854;48.072;16.286;2023-09-19T16:00:32;0.28;;;0.28;;
11596;SDS011;5854;48.072;16.286;2023-09-19T16:03:01;0.70;;;0.30;;
11596;SDS011;5854;48.072;16.286;2023-09-19T16:05:28;0.20;;;0.20;;
11596;SDS011;5854;48.072;16.286;2023-09-19T16:08:05;0.20;;;0.20;;
11596;SDS011;5854;48.072;16.286;2023-09-19T16:10:36;1.08;;;0.25;;
11596;SDS011;5854;48.072;16.286;2023-09-19T16:13:03;0.97;;;0.27;;
11596;SDS011;5854;48.072;16.286;2023-09-19T16:15:34;0.25;;;0.22;;
11596;SDS011;5854;48.072;16.286;2023-09-19T16:18:09;0.28;;;0.28;;
11596;SDS011;5854;48.072;16.286;2023-09-19T16:20:36;0.30;;;0.25;;
11596;SDS011;5854;48.072;16.286;2023-09-19T16:23:03;0.68;;;0.30;;
11596;SDS011;5854;48.072;16.286;2023-09-19T16:25:31;0.20;;;0.20;;
11596;SDS011;5854;48.072;16.286;2023-09-19T16:27:58;0.55;;;0.25;;
11596;SDS011;5854;48.072;16.286;2023-09-19T16:30:25;0.13;;;0.13;;
11596;SDS011;5854;48.072;16.286;2023-09-19T16:32:55;0.75;;;0.30;;
11596;SDS011;5854;48.072;16.286;2023-09-19T16:35:22;0.63;;;0.22;;
11596;SDS011;5854;48.072;16.286;2023-09-19T16:37:50;1.17;;;0.20;;
11596;SDS011;5854;48.072;16.286;2023-09-19T16:40:17;0.45;;;0.30;;
11596;SDS011;5854;48.072;16.286;2023-09-19T16:42:44;0.73;;;0.30;;
11596;SDS011;5854;48.072;16.286;2023-09-19T16:45:12;0.80;;;0.40;;
11596;SDS011;5854;48.072;16.286;2023-09-19T16:47:40;0.30;;;0.30;;
11596;SDS011;5854;48.072;16.286;2023-09-19T16:52:41;0.40;;;0.30;;
11596;SDS011;5854;48.072;16.286;2023-09-19T17:00:18;0.40;;;0.40;;
11596;SDS011;5854;48.072;16.286;2023-09-19T17:02:46;1.30;;;0.35;;
11596;SDS011;5854;48.072;16.286;2023-09-19T17:05:29;0.50;;;0.40;;
11596;SDS011;5854;48.072;16.286;2023-09-19T17:13:23;4.43;;;0.30;;
11596;SDS011;5854;48.072;16.286;2023-09-19T17:15:58;0.20;;;0.20;;
11596;SDS011;5854;48.072;16.286;2023-09-19T17:18:27;0.50;;;0.30;;
11596;SDS011;5854;48.072;16.286;2023-09-19T17:20:56;1.02;;;0.20;;
11596;SDS011;5854;48.072;16.286;2023-09-19T17:23:26;0.17;;;0.17;;
11596;SDS011;5854;48.072;16.286;2023-09-19T17:26:01;0.30;;;0.30;;
11596;SDS011;5854;48.072;16.286;2023-09-19T17:28:32;2.70;;;0.40;;
11596;SDS011;5854;48.072;16.286;2023-09-19T17:30:59;1.67;;;0.20;;
11596;SDS011;5854;48.072;16.286;2023-09-19T17:33:27;1.85;;;0.38;;
11596;SDS011;5854;48.072;16.286;2023-09-19T17:36:04;0.43;;;0.25;;
11596;SDS011;5854;48.072;16.286;2023-09-19T17:38:33;0.98;;;0.20;;
11596;SDS011;5854;48.072;16.286;2023-09-19T17:41:02;0.28;;;0.28;;
11596;SDS011;5854;48.072;16.286;2023-09-19T17:43:34;0.40;;;0.30;;
11596;SDS011;5854;48.072;16.286;2023-09-19T17:46:09;2.22;;;0.60;;
11596;SDS011;5854;48.072;16.286;2023-09-19T17:48:39;0.28;;;0.20;;
11596;SDS011;5854;48.072;16.286;2023-09-19T17:51:08;0.60;;;0.20;;
11596;SDS011;5854;48.072;16.286;2023-09-19T17:53:36;0.30;;;0.30;;